Time;durP1;ratioP1;P1;durP2;ratioP2;P2;SDS_P1;SDS_P2;PMS_P1;PMS_P2;Temp;Humidity;BMP_temperature;BMP_pressure;BME280_temperature;BME280_humidity;BME280_pressure;Samples;Min_cycle;Max_cycle;Signal;HPM_P1;HPM_P2
2021/08/16 00:01:26;;;;;;;7.93;4.70;;;20.30;99.90;;;;;;5090661;28;20257;-64
2021/08/16 00:03:53;;;;;;;5.22;4.65;;;20.20;99.90;;;;;;5090212;28;20232;-64
2021/08/16 00:06:21;;;;;;;7.78;5.20;;;20.20;99.90;;;;;;5090363;28;20224;-64
2021/08/16 00:08:47;;;;;;;7.15;5.10;;;20.20;99.90;;;;;;5090311;28;20208;-65
2021/08/16 00:11:15;;;;;;;9.45;5.13;;;20.10;99.90;;;;;;5090584;28;20255;-63
2021/08/16 00:13:42;;;;;;;7.90;5.50;;;20.10;99.90;;;;;;5092949;28;20212;-65
2021/08/16 00:16:09;;;;;;;6.30;5.32;;;20.10;99.90;;;;;;5094519;28;20585;-65
2021/08/16 00:18:36;;;;;;;8.07;5.60;;;20.20;99.90;;;;;;5094302;28;20207;-65
2021/08/16 00:21:03;;;;;;;7.35;5.22;;;20.20;99.90;;;;;;5094240;28;20211;-63
2021/08/16 00:23:31;;;;;;;9.80;5.53;;;20.30;99.90;;;;;;5094450;28;20235;-64
2021/08/16 00:25:58;;;;;;;8.00;5.43;;;20.30;99.90;;;;;;5094100;28;20605;-65
2021/08/16 00:28:25;;;;;;;7.63;5.63;;;20.30;99.90;;;;;;5093940;28;20204;-65
2021/08/16 00:30:52;;;;;;;8.57;5.43;;;20.30;99.90;;;;;;5094012;28;20667;-65
2021/08/16 00:33:18;;;;;;;7.78;5.70;;;20.30;99.90;;;;;;5094138;28;20204;-63
2021/08/16 00:35:45;;;;;;;9.52;5.78;;;20.30;99.90;;;;;;5093881;28;20307;-64
2021/08/16 00:38:12;;;;;;;9.80;5.60;;;20.40;99.90;;;;;;5094193;28;20273;-65
2021/08/16 00:40:40;;;;;;;8.70;5.80;;;20.40;99.90;;;;;;5093737;28;20204;-64
2021/08/16 00:43:07;;;;;;;7.82;5.68;;;20.40;99.90;;;;;;5093816;28;20606;-65
2021/08/16 00:45:34;;;;;;;9.73;5.88;;;20.40;99.90;;;;;;5093510;28;20224;-64
2021/08/16 00:48:00;;;;;;;8.05;5.93;;;20.40;99.90;;;;;;5093710;28;20211;-65
2021/08/16 00:50:27;;;;;;;6.68;5.57;;;20.60;99.90;;;;;;5093639;28;20216;-64
2021/08/16 00:52:54;;;;;;;9.25;5.68;;;20.60;99.90;;;;;;5093507;28;20212;-65
2021/08/16 00:55:21;;;;;;;8.88;5.90;;;20.70;99.90;;;;;;5093120;28;20605;-64
2021/08/16 00:57:49;;;;;;;8.60;4.90;;;20.80;99.90;;;;;;5093368;28;20246;-65
2021/08/16 01:00:16;;;;;;;8.27;5.43;;;20.80;99.90;;;;;;5093320;28;20208;-64
2021/08/16 01:02:44;;;;;;;12.07;5.25;;;20.80;99.90;;;;;;5093432;28;20210;-65
2021/08/16 01:05:13;;;;;;;7.47;5.22;;;20.90;99.90;;;;;;5093496;28;20224;-64
2021/08/16 01:07:42;;;;;;;6.85;5.13;;;20.90;99.90;;;;;;5092942;28;20273;-64
2021/08/16 01:10:10;;;;;;;11.02;5.35;;;20.90;99.90;;;;;;5093259;28;20215;-65
2021/08/16 01:12:37;;;;;;;9.18;5.05;;;20.90;99.90;;;;;;5093255;28;20212;-65
2021/08/16 01:15:07;;;;;;;7.20;5.22;;;20.90;99.90;;;;;;5093009;28;20224;-64
2021/08/16 01:17:35;;;;;;;10.15;5.70;;;20.90;99.90;;;;;;5093237;28;20211;-64
2021/08/16 01:20:03;;;;;;;10.27;5.50;;;20.90;99.90;;;;;;5092958;28;20204;-64
2021/08/16 01:22:31;;;;;;;6.55;5.50;;;21.00;99.90;;;;;;5093117;28;20204;-64
2021/08/16 01:24:58;;;;;;;9.57;5.70;;;21.00;99.90;;;;;;5092323;28;20281;-64
2021/08/16 01:27:26;;;;;;;8.52;5.70;;;21.10;99.90;;;;;;5092854;28;20277;-64
2021/08/16 01:29:52;;;;;;;8.73;5.72;;;21.20;99.90;;;;;;5092872;28;20212;-65
2021/08/16 01:32:19;;;;;;;9.30;5.22;;;21.10;99.90;;;;;;5092742;28;20208;-64
2021/08/16 01:34:46;;;;;;;6.75;5.47;;;21.10;99.90;;;;;;5092400;28;20228;-64
2021/08/16 01:37:12;;;;;;;8.95;5.32;;;21.20;99.90;;;;;;5092672;28;20257;-65
2021/08/16 01:39:39;;;;;;;7.60;5.60;;;21.10;99.90;;;;;;5092654;28;20204;-64
2021/08/16 01:42:06;;;;;;;8.02;5.55;;;21.00;99.90;;;;;;5092831;28;20741;-65
2021/08/16 01:44:34;;;;;;;7.68;5.57;;;20.90;99.90;;;;;;5092663;28;20303;-65
2021/08/16 01:47:00;;;;;;;7.78;6.10;;;20.80;99.90;;;;;;5092569;28;20223;-64
2021/08/16 01:49:27;;;;;;;10.32;5.50;;;20.70;99.90;;;;;;5092452;28;20212;-64
2021/08/16 01:51:54;;;;;;;7.05;5.50;;;20.80;99.90;;;;;;5092618;28;20212;-64
2021/08/16 01:54:20;;;;;;;10.15;6.13;;;20.80;99.90;;;;;;5092314;28;20228;-65
2021/08/16 01:56:47;;;;;;;9.05;5.72;;;20.80;99.90;;;;;;5092777;28;20208;-65
2021/08/16 01:59:14;;;;;;;9.55;5.82;;;20.70;99.90;;;;;;5092153;28;20204;-65
2021/08/16 02:01:42;;;;;;;6.78;5.53;;;20.70;99.90;;;;;;5092155;28;20211;-65
2021/08/16 02:04:10;;;;;;;8.50;5.85;;;20.70;99.90;;;;;;5091858;28;20231;-65
2021/08/16 02:06:36;;;;;;;8.75;5.82;;;20.60;99.90;;;;;;5092184;28;20339;-64
2021/08/16 02:09:04;;;;;;;10.60;6.20;;;20.50;99.90;;;;;;5091935;28;20208;-65
2021/08/16 02:11:31;;;;;;;9.07;6.03;;;20.50;99.90;;;;;;5092303;28;20204;-63
2021/08/16 02:13:57;;;;;;;11.90;6.60;;;20.50;99.90;;;;;;5091798;28;20221;-65
2021/08/16 02:16:24;;;;;;;8.05;6.10;;;20.50;99.90;;;;;;5091879;28;20211;-64
2021/08/16 02:18:52;;;;;;;10.65;6.25;;;20.50;99.90;;;;;;5091686;28;20703;-64
2021/08/16 02:21:19;;;;;;;7.68;6.05;;;20.70;99.90;;;;;;5091834;28;20215;-64
2021/08/16 02:23:46;;;;;;;8.77;5.93;;;20.80;99.90;;;;;;5091547;28;20196;-64
2021/08/16 02:26:12;;;;;;;7.28;5.70;;;20.80;99.90;;;;;;5091703;28;20627;-65
2021/08/16 02:28:39;;;;;;;8.13;6.00;;;20.80;99.90;;;;;;5091375;28;20585;-65
2021/08/16 02:31:06;;;;;;;6.90;5.97;;;20.80;99.90;;;;;;5091436;28;20204;-65
2021/08/16 02:33:33;;;;;;;8.07;6.47;;;20.90;99.90;;;;;;5091584;28;20215;-63
2021/08/16 02:36:01;;;;;;;9.77;6.10;;;21.00;99.90;;;;;;5090804;28;20219;-64
2021/08/16 02:38:27;;;;;;;8.23;6.13;;;21.20;99.90;;;;;;5091238;28;20660;-64
2021/08/16 02:40:54;;;;;;;8.05;5.85;;;21.20;99.90;;;;;;5091504;28;20280;-65
2021/08/16 02:43:21;;;;;;;10.77;5.78;;;21.30;99.90;;;;;;5091416;28;20215;-65
2021/08/16 02:45:48;;;;;;;9.02;6.40;;;21.50;99.90;;;;;;5091273;28;20228;-64
2021/08/16 02:48:14;;;;;;;6.80;6.10;;;21.60;99.90;;;;;;5091228;28;20247;-64
2021/08/16 02:50:42;;;;;;;10.05;6.80;;;21.70;99.90;;;;;;5091342;28;20214;-64
2021/08/16 02:53:10;;;;;;;8.02;7.22;;;21.90;99.90;;;;;;5091128;28;20218;-64
2021/08/16 02:55:37;;;;;;;9.15;7.53;;;21.90;99.90;;;;;;5091034;28;20223;-65
2021/08/16 02:58:03;;;;;;;11.88;7.57;;;21.90;99.90;;;;;;5090967;28;20575;-65
2021/08/16 03:00:30;;;;;;;11.90;7.80;;;22.00;99.90;;;;;;5091298;28;20211;-65
2021/08/16 03:02:57;;;;;;;12.93;8.18;;;22.10;99.90;;;;;;5091332;28;20204;-64
2021/08/16 03:05:24;;;;;;;12.05;7.22;;;22.10;99.90;;;;;;5090800;28;20651;-64
2021/08/16 03:07:51;;;;;;;12.25;7.43;;;22.20;99.90;;;;;;5090854;28;20598;-64
2021/08/16 03:10:19;;;;;;;12.10;7.25;;;22.30;99.90;;;;;;5091022;28;20690;-64
2021/08/16 03:12:46;;;;;;;11.07;7.18;;;22.40;99.90;;;;;;5091179;28;20208;-64
2021/08/16 03:15:13;;;;;;;8.00;6.70;;;22.40;99.90;;;;;;5091256;28;20729;-63
2021/08/16 03:17:41;;;;;;;10.52;6.47;;;22.40;99.90;;;;;;5091596;28;20201;-64
2021/08/16 03:20:09;;;;;;;8.02;5.85;;;22.40;99.90;;;;;;5091123;28;20211;-65
2021/08/16 03:22:36;;;;;;;9.55;5.22;;;22.40;99.90;;;;;;5090991;28;20211;-64
2021/08/16 03:25:03;;;;;;;8.45;5.68;;;22.40;99.90;;;;;;5090740;28;20238;-64
2021/08/16 03:27:31;;;;;;;8.07;5.68;;;22.40;99.90;;;;;;5090575;28;20707;-64
2021/08/16 03:29:58;;;;;;;6.60;4.88;;;22.40;99.90;;;;;;5090567;28;20675;-63
2021/08/16 03:32:25;;;;;;;6.38;5.10;;;22.50;99.90;;;;;;5090929;28;20269;-64
2021/08/16 03:34:53;;;;;;;8.18;5.03;;;22.40;99.90;;;;;;5114030;22;20231;-61
2021/08/16 03:37:20;;;;;;;9.60;4.97;;;22.40;99.90;;;;;;5091261;28;20208;-61
2021/08/16 03:39:46;;;;;;;10.32;5.40;;;22.40;99.90;;;;;;5091144;28;20558;-61
2021/08/16 03:42:13;;;;;;;6.70;4.70;;;22.40;99.90;;;;;;5091487;28;20204;-61
2021/08/16 03:44:41;;;;;;;12.77;5.45;;;22.40;99.90;;;;;;5090851;28;20235;-61
2021/08/16 03:47:08;;;;;;;8.18;5.45;;;22.30;99.90;;;;;;5092841;28;20224;-61
2021/08/16 03:49:35;;;;;;;7.13;4.78;;;22.30;99.90;;;;;;5095152;28;20204;-61
2021/08/16 03:52:02;;;;;;;8.40;5.03;;;22.30;99.90;;;;;;5095083;28;20586;-61
2021/08/16 03:54:28;;;;;;;7.72;4.80;;;22.20;99.90;;;;;;5094921;28;20234;-61
2021/08/16 03:56:55;;;;;;;7.65;5.35;;;22.10;99.90;;;;;;5095512;28;20212;-61
2021/08/16 03:59:22;;;;;;;8.18;5.22;;;22.10;99.90;;;;;;5095346;28;20487;-61
2021/08/16 04:01:50;;;;;;;7.85;5.40;;;22.00;99.90;;;;;;5095132;28;20667;-60
2021/08/16 04:04:17;;;;;;;6.90;5.35;;;22.00;99.90;;;;;;5094957;28;20707;-60
2021/08/16 04:06:44;;;;;;;7.07;5.30;;;22.00;99.90;;;;;;5094968;28;20242;-60
2021/08/16 04:09:11;;;;;;;8.77;5.43;;;22.10;99.90;;;;;;5095259;28;20224;-60
2021/08/16 04:11:38;;;;;;;7.43;5.25;;;22.10;99.90;;;;;;5095299;28;20208;-61
2021/08/16 04:14:05;;;;;;;8.80;5.38;;;22.20;99.90;;;;;;5094832;28;20239;-61
2021/08/16 04:16:32;;;;;;;7.45;5.38;;;22.30;99.90;;;;;;5095003;28;20200;-61
2021/08/16 04:19:00;;;;;;;8.60;5.47;;;22.30;99.90;;;;;;5094848;28;20204;-60
2021/08/16 04:21:27;;;;;;;7.93;5.45;;;22.30;99.90;;;;;;5095159;28;20261;-60
2021/08/16 04:23:54;;;;;;;11.20;5.80;;;22.20;99.90;;;;;;5094650;28;20257;-62
2021/08/16 04:26:20;;;;;;;12.90;6.93;;;22.10;99.90;;;;;;5094559;28;20672;-62
2021/08/16 04:28:47;;;;;;;9.15;7.10;;;22.10;99.90;;;;;;5094875;28;20554;-62
2021/08/16 04:31:14;;;;;;;11.18;6.60;;;22.10;99.90;;;;;;5095033;28;20208;-60
2021/08/16 04:33:40;;;;;;;12.00;6.82;;;22.20;99.90;;;;;;5094561;28;20200;-61
2021/08/16 04:36:08;;;;;;;10.65;6.63;;;22.20;99.90;;;;;;5094472;28;20239;-61
2021/08/16 04:38:35;;;;;;;9.90;7.10;;;22.10;99.90;;;;;;5094897;28;20204;-62
2021/08/16 04:41:02;;;;;;;10.23;7.00;;;22.10;99.90;;;;;;5094480;28;20211;-60
2021/08/16 04:43:28;;;;;;;13.35;7.35;;;21.90;99.90;;;;;;5094414;28;20204;-61
2021/08/16 04:45:55;;;;;;;11.95;7.13;;;21.70;99.90;;;;;;5094420;28;20224;-61
2021/08/16 04:48:22;;;;;;;11.77;6.80;;;21.70;99.90;;;;;;5094233;28;20221;-61
2021/08/16 04:50:49;;;;;;;8.40;6.75;;;21.70;99.90;;;;;;5094671;28;20311;-61
2021/08/16 04:53:17;;;;;;;12.95;7.00;;;21.80;99.90;;;;;;5094462;28;20235;-61
2021/08/16 04:55:44;;;;;;;11.18;6.35;;;21.80;99.90;;;;;;5093958;28;20240;-62
2021/08/16 04:58:11;;;;;;;7.38;6.50;;;21.90;99.90;;;;;;5093048;28;20212;-61
2021/08/16 05:00:37;;;;;;;8.85;7.03;;;22.00;99.90;;;;;;5094062;28;20208;-61
2021/08/16 05:03:04;;;;;;;6.93;6.22;;;22.10;99.90;;;;;;5093756;28;20207;-61
2021/08/16 05:05:31;;;;;;;8.20;5.93;;;22.10;99.90;;;;;;5093880;28;20311;-61
2021/08/16 05:08:00;;;;;;;9.35;6.13;;;22.20;99.90;;;;;;5093982;28;20220;-61
2021/08/16 05:10:30;;;;;;;10.70;5.88;;;22.30;99.90;;;;;;5094057;28;20208;-61
2021/08/16 05:12:59;;;;;;;10.60;6.03;;;22.40;99.90;;;;;;5093983;28;20201;-61
2021/08/16 05:15:27;;;;;;;8.90;6.00;;;22.40;99.90;;;;;;5093997;28;20231;-61
2021/08/16 05:17:54;;;;;;;11.75;6.43;;;22.40;99.90;;;;;;5093419;28;20223;-61
2021/08/16 05:20:22;;;;;;;10.18;6.07;;;22.50;99.90;;;;;;5093419;28;20675;-61
2021/08/16 05:22:49;;;;;;;8.63;5.78;;;22.60;99.90;;;;;;5093318;28;20208;-61
2021/08/16 05:25:17;;;;;;;7.78;6.10;;;22.60;99.90;;;;;;5096475;28;20224;-61
2021/08/16 05:27:46;;;;;;;8.40;5.65;;;22.60;99.90;;;;;;5096556;28;20266;-61
2021/08/16 05:30:14;;;;;;;7.53;6.20;;;22.60;99.90;;;;;;5093909;28;20200;-62
2021/08/16 05:32:41;;;;;;;13.35;5.88;;;22.60;99.90;;;;;;5093430;28;20204;-61
2021/08/16 05:35:10;;;;;;;7.35;5.78;;;22.60;99.90;;;;;;5093176;28;20238;-61
2021/08/16 05:37:37;;;;;;;7.05;6.03;;;22.70;99.90;;;;;;5093710;28;20208;-61
2021/08/16 05:40:04;;;;;;;9.65;5.57;;;22.80;99.90;;;;;;5094537;28;20254;-61
2021/08/16 05:42:31;;;;;;;13.57;6.25;;;22.90;99.90;;;;;;5094089;28;20534;-61
2021/08/16 05:45:00;;;;;;;11.52;5.50;;;23.00;99.90;;;;;;5093278;28;20231;-61
2021/08/16 05:47:27;;;;;;;8.23;5.47;;;23.10;99.90;;;;;;5093383;28;20577;-60
2021/08/16 05:49:54;;;;;;;8.27;5.82;;;23.20;99.90;;;;;;5093184;28;20650;-60
2021/08/16 05:52:21;;;;;;;11.13;5.80;;;23.20;99.90;;;;;;5093177;28;20230;-60
2021/08/16 05:54:47;;;;;;;9.15;5.55;;;23.20;99.90;;;;;;5093098;28;20231;-60
2021/08/16 05:57:14;;;;;;;10.43;5.63;;;23.10;99.90;;;;;;5092819;28;20683;-60
2021/08/16 05:59:41;;;;;;;9.05;5.55;;;23.00;99.90;;;;;;5092750;28;20208;-60
2021/08/16 06:02:09;;;;;;;8.38;5.45;;;23.00;99.90;;;;;;5092416;28;20569;-60
2021/08/16 06:04:36;;;;;;;9.25;5.07;;;22.90;99.90;;;;;;5092194;28;20224;-60
2021/08/16 06:07:02;;;;;;;8.85;5.43;;;22.90;99.90;;;;;;5092341;28;20230;-61
2021/08/16 06:09:29;;;;;;;8.43;5.43;;;22.80;99.90;;;;;;5092260;28;20220;-61
2021/08/16 06:11:56;;;;;;;5.90;4.57;;;22.80;99.90;;;;;;5094511;28;20257;-61
2021/08/16 06:14:23;;;;;;;10.80;5.47;;;22.80;99.90;;;;;;5096978;28;20227;-61
2021/08/16 06:16:49;;;;;;;10.38;4.90;;;22.80;99.90;;;;;;5094036;28;20215;-61
2021/08/16 06:19:17;;;;;;;9.32;4.90;;;22.80;99.90;;;;;;5092034;28;20208;-61
2021/08/16 06:21:44;;;;;;;7.28;4.13;;;22.90;99.90;;;;;;5092905;28;20204;-61
2021/08/16 06:24:11;;;;;;;7.25;5.13;;;22.70;99.90;;;;;;5092103;28;20200;-61
2021/08/16 06:26:38;;;;;;;10.45;5.53;;;22.70;99.90;;;;;;5092355;28;20231;-61
2021/08/16 06:29:05;;;;;;;6.78;5.10;;;22.80;99.90;;;;;;5091940;28;20733;-61
2021/08/16 06:31:32;;;;;;;9.63;4.80;;;23.00;99.90;;;;;;5092144;28;20200;-61
2021/08/16 06:33:59;;;;;;;7.65;4.78;;;23.40;99.90;;;;;;5091652;28;20211;-61
2021/08/16 06:36:27;;;;;;;7.55;4.85;;;24.10;99.90;;;;;;5092045;28;20208;-61
2021/08/16 06:38:54;;;;;;;9.05;4.35;;;24.80;99.90;;;;;;5092265;28;20208;-61
2021/08/16 06:41:21;;;;;;;9.07;4.20;;;25.10;99.90;;;;;;5092050;28;20515;-61
2021/08/16 06:43:48;;;;;;;7.32;4.47;;;25.00;99.90;;;;;;5091778;28;20208;-61
2021/08/16 06:46:15;;;;;;;6.75;4.32;;;25.10;99.90;;;;;;5091726;28;20228;-61
2021/08/16 06:48:42;;;;;;;5.55;4.10;;;24.90;99.90;;;;;;5091505;28;20224;-61
2021/08/16 06:51:09;;;;;;;7.80;4.38;;;24.70;99.90;;;;;;5091502;28;20213;-60
2021/08/16 06:53:37;;;;;;;6.60;4.05;;;24.90;99.90;;;;;;5091080;28;20208;-59
2021/08/16 06:56:05;;;;;;;5.47;3.92;;;25.10;99.90;;;;;;5091689;28;20249;-59
2021/08/16 06:58:32;;;;;;;5.10;3.85;;;25.20;99.90;;;;;;5091929;28;20236;-60
2021/08/16 07:00:59;;;;;;;6.10;3.90;;;25.30;99.90;;;;;;5091730;28;20235;-59
2021/08/16 07:03:26;;;;;;;5.65;3.33;;;25.30;99.90;;;;;;5091189;28;20560;-58
2021/08/16 07:05:53;;;;;;;7.50;4.13;;;25.20;99.90;;;;;;5091313;28;20527;-58
2021/08/16 07:08:20;;;;;;;6.82;3.60;;;25.20;99.90;;;;;;5090832;28;20231;-60
2021/08/16 07:10:49;;;;;;;6.80;3.70;;;25.20;99.90;;;;;;5091388;28;20597;-59
2021/08/16 07:13:16;;;;;;;6.35;4.00;;;25.20;99.90;;;;;;5091207;28;20206;-61
2021/08/16 07:15:43;;;;;;;6.50;3.50;;;25.30;99.90;;;;;;5090831;28;20235;-59
2021/08/16 07:18:09;;;;;;;5.80;3.25;;;25.40;99.90;;;;;;5090843;28;20207;-59
2021/08/16 07:20:36;;;;;;;5.05;3.75;;;25.60;99.90;;;;;;5090945;28;20572;-59
2021/08/16 07:23:03;;;;;;;8.40;3.38;;;25.50;99.90;;;;;;5090907;28;20204;-59
2021/08/16 07:25:30;;;;;;;7.20;3.25;;;25.50;99.90;;;;;;5090738;28;20715;-59
2021/08/16 07:27:58;;;;;;;7.00;3.17;;;26.00;99.90;;;;;;5090877;28;20230;-59
2021/08/16 07:30:24;;;;;;;5.85;3.50;;;26.50;99.90;;;;;;5091159;28;20208;-60
2021/08/16 07:32:51;;;;;;;5.13;3.15;;;26.50;99.90;;;;;;5090845;28;20212;-59
2021/08/16 07:35:18;;;;;;;6.57;2.97;;;26.50;99.90;;;;;;5090455;28;20247;-59
2021/08/16 07:37:44;;;;;;;4.43;3.20;;;26.30;99.90;;;;;;5090966;28;20211;-60
2021/08/16 07:40:12;;;;;;;6.28;3.35;;;26.00;99.90;;;;;;5090685;28;20706;-59
2021/08/16 07:42:39;;;;;;;6.47;3.22;;;25.80;99.90;;;;;;5090972;28;20256;-60
2021/08/16 07:45:09;;;;;;;6.32;3.55;;;25.60;99.90;;;;;;5090674;28;20715;-59
2021/08/16 07:47:36;;;;;;;6.03;3.38;;;25.30;99.90;;;;;;5090622;28;20208;-60
2021/08/16 07:50:02;;;;;;;7.35;3.35;;;25.10;99.90;;;;;;5090571;28;20235;-59
2021/08/16 07:52:29;;;;;;;5.15;3.53;;;25.00;99.90;;;;;;5090960;28;20211;-59
2021/08/16 07:54:56;;;;;;;5.05;3.42;;;25.00;99.90;;;;;;5090748;28;20220;-59
2021/08/16 07:57:23;;;;;;;6.82;3.50;;;25.10;99.90;;;;;;5090712;28;20207;-59
2021/08/16 07:59:49;;;;;;;6.47;3.17;;;25.40;99.90;;;;;;5090705;28;20200;-59
2021/08/16 08:02:17;;;;;;;4.32;2.90;;;25.30;99.90;;;;;;5090496;28;20230;-59
2021/08/16 08:04:44;;;;;;;6.88;3.33;;;25.30;99.90;;;;;;5090783;28;20236;-59
2021/08/16 08:07:11;;;;;;;4.68;2.85;;;25.50;99.90;;;;;;5091002;28;20212;-58
2021/08/16 08:09:37;;;;;;;7.88;3.63;;;25.70;99.90;;;;;;5091006;28;20293;-58
2021/08/16 08:12:05;;;;;;;7.35;3.50;;;25.70;99.90;;;;;;5090872;28;20200;-58
2021/08/16 08:14:33;;;;;;;5.55;3.30;;;25.80;99.90;;;;;;5090305;28;20224;-59
2021/08/16 08:17:00;;;;;;;5.28;3.28;;;25.80;99.90;;;;;;5090740;28;20201;-63
2021/08/16 08:19:28;;;;;;;8.02;3.40;;;25.70;99.90;;;;;;5090686;28;20204;-63
2021/08/16 08:21:54;;;;;;;10.90;3.25;;;25.70;99.90;;;;;;5091089;28;20215;-63
2021/08/16 08:24:21;;;;;;;4.47;2.80;;;25.80;99.90;;;;;;5090497;28;20265;-63
2021/08/16 08:26:48;;;;;;;4.55;3.15;;;25.80;99.90;;;;;;5090604;28;20261;-63
2021/08/16 08:29:14;;;;;;;7.90;3.30;;;25.80;99.90;;;;;;5090312;28;20224;-63
2021/08/16 08:31:42;;;;;;;4.75;3.15;;;25.80;99.90;;;;;;5090707;28;20208;-63
2021/08/16 08:34:09;;;;;;;6.38;3.42;;;25.80;99.90;;;;;;5091429;28;20231;-62
2021/08/16 08:36:37;;;;;;;5.53;3.45;;;25.80;99.90;;;;;;5094087;28;20792;-62
2021/08/16 08:39:04;;;;;;;7.22;3.78;;;25.80;99.90;;;;;;5093956;28;20699;-63
2021/08/16 08:41:32;;;;;;;5.90;3.55;;;26.00;99.90;;;;;;5093994;28;20208;-63
2021/08/16 08:44:00;;;;;;;4.57;3.40;;;26.20;99.90;;;;;;5093751;28;20257;-62
2021/08/16 08:46:28;;;;;;;7.55;3.60;;;26.30;99.90;;;;;;5094101;28;20208;-63
2021/08/16 08:48:54;;;;;;;6.97;3.67;;;26.60;99.90;;;;;;5094012;28;20220;-63
2021/08/16 08:51:21;;;;;;;8.23;3.80;;;26.60;99.90;;;;;;5093587;28;20580;-64
2021/08/16 08:53:52;;;;;;;6.20;3.85;;;26.50;99.90;;;;;;5093984;28;20303;-62
2021/08/16 08:56:19;;;;;;;6.63;3.83;;;26.60;99.90;;;;;;5093843;28;20212;-63
2021/08/16 08:58:46;;;;;;;7.68;3.60;;;26.60;99.90;;;;;;5093490;28;20208;-63
2021/08/16 09:01:13;;;;;;;6.88;3.90;;;26.60;99.90;;;;;;5094170;28;20201;-62
2021/08/16 09:03:48;;;;;;;5.80;3.53;;;26.70;99.90;;;;;;5094360;28;20219;-65
2021/08/16 09:06:16;;;;;;;7.90;4.10;;;26.70;99.90;;;;;;5077155;28;20262;-66
2021/08/16 09:08:44;;;;;;;7.47;4.30;;;26.50;99.90;;;;;;5073557;28;20220;-65
2021/08/16 09:11:14;;;;;;;5.80;3.80;;;26.10;99.90;;;;;;5089716;28;20212;-65
2021/08/16 09:13:50;;;;;;;6.10;4.13;;;25.80;99.90;;;;;;5093545;28;20208;-66
2021/08/16 09:16:17;;;;;;;6.40;3.70;;;25.70;99.90;;;;;;5088889;28;20232;-65
2021/08/16 09:18:44;;;;;;;6.72;4.45;;;25.90;99.90;;;;;;5073498;28;20228;-65
2021/08/16 09:21:12;;;;;;;6.93;3.88;;;26.20;99.90;;;;;;5073391;28;20213;-65
2021/08/16 09:23:44;;;;;;;6.72;4.10;;;26.60;99.90;;;;;;5072677;28;20694;-66
2021/08/16 09:26:13;;;;;;;10.95;3.97;;;27.00;99.90;;;;;;5073280;28;20264;-65
2021/08/16 09:28:40;;;;;;;5.30;3.80;;;27.40;99.90;;;;;;5072857;28;20252;-65
2021/08/16 09:31:13;;;;;;;7.32;4.10;;;27.60;99.90;;;;;;5072834;28;20668;-67
2021/08/16 09:33:39;;;;;;;4.85;3.55;;;27.70;99.90;;;;;;5072842;28;20216;-65
2021/08/16 09:36:06;;;;;;;7.45;3.60;;;27.70;99.90;;;;;;5125974;22;20236;-62
2021/08/16 09:38:37;;;;;;;7.60;3.50;;;27.80;99.90;;;;;;5113440;28;20204;-62
2021/08/16 09:41:05;;;;;;;5.25;3.50;;;27.80;99.90;;;;;;5112800;28;20693;-61
2021/08/16 09:43:34;;;;;;;7.55;3.58;;;27.80;99.90;;;;;;5111985;28;20695;-61
2021/08/16 09:46:02;;;;;;;5.90;3.60;;;28.00;99.90;;;;;;5112368;28;20749;-62
2021/08/16 09:48:29;;;;;;;6.78;3.72;;;28.30;99.90;;;;;;5112530;28;20242;-60
2021/08/16 09:50:56;;;;;;;7.03;3.80;;;28.30;99.50;;;;;;5113030;28;20690;-62
2021/08/16 09:53:24;;;;;;;5.65;3.58;;;28.10;99.90;;;;;;5112723;28;20641;-62
2021/08/16 09:55:52;;;;;;;5.63;3.58;;;27.90;99.70;;;;;;5112380;28;20779;-62
2021/08/16 09:58:20;;;;;;;7.15;4.18;;;28.00;99.90;;;;;;5112409;28;20236;-61
2021/08/16 10:00:50;;;;;;;6.93;3.55;;;28.20;98.40;;;;;;5112495;28;20276;-61
2021/08/16 10:03:17;;;;;;;7.93;3.03;;;28.40;97.30;;;;;;5112356;28;20212;-62
2021/08/16 10:05:46;;;;;;;5.43;2.90;;;28.50;96.40;;;;;;5112212;28;20280;-61
2021/08/16 10:08:15;;;;;;;6.28;3.47;;;28.60;96.60;;;;;;5112193;28;20639;-62
2021/08/16 10:10:43;;;;;;;4.68;2.97;;;28.60;97.00;;;;;;5112264;28;20242;-60
2021/08/16 10:13:11;;;;;;;6.00;3.42;;;28.40;96.40;;;;;;5111794;28;20679;-61
2021/08/16 10:15:39;;;;;;;5.63;3.40;;;28.30;96.50;;;;;;5110956;28;20227;-59
2021/08/16 10:18:13;;;;;;;7.53;3.47;;;28.20;95.10;;;;;;5093381;28;20208;-61
2021/08/16 10:20:40;;;;;;;4.88;3.42;;;27.80;95.40;;;;;;5091722;28;20269;-62
2021/08/16 10:23:17;;;;;;;6.35;2.90;;;27.60;96.10;;;;;;5091640;28;20200;-62
2021/08/16 10:25:46;;;;;;;8.00;3.10;;;27.50;96.40;;;;;;5091592;28;20219;-62
2021/08/16 10:28:23;;;;;;;4.75;2.80;;;27.50;96.50;;;;;;5091162;28;20208;-63
2021/08/16 10:30:50;;;;;;;7.57;3.08;;;27.20;96.80;;;;;;5091508;28;20224;-63
2021/08/16 10:33:18;;;;;;;5.93;2.78;;;27.10;97.30;;;;;;5091729;28;20568;-63
2021/08/16 10:35:46;;;;;;;5.70;3.20;;;27.20;96.70;;;;;;5091129;28;20232;-63
2021/08/16 10:38:14;;;;;;;6.55;3.10;;;27.40;95.40;;;;;;5091410;28;20208;-63
2021/08/16 10:40:42;;;;;;;7.93;3.10;;;27.30;94.90;;;;;;5091191;28;20200;-63
2021/08/16 10:43:10;;;;;;;5.03;2.90;;;27.20;95.10;;;;;;5091236;28;20679;-61
2021/08/16 10:45:44;;;;;;;6.45;3.15;;;27.00;94.90;;;;;;5091800;28;20327;-63
2021/08/16 10:48:19;;;;;;;6.18;3.30;;;26.80;95.00;;;;;;5091403;28;20254;-62
2021/08/16 10:50:48;;;;;;;7.97;3.33;;;26.70;95.30;;;;;;5091028;28;20604;-62
2021/08/16 10:53:14;;;;;;;5.85;3.10;;;26.80;95.40;;;;;;5090936;28;20208;-63
2021/08/16 10:55:43;;;;;;;5.35;3.40;;;26.80;94.70;;;;;;5090788;28;20289;-62
2021/08/16 10:58:11;;;;;;;5.32;2.90;;;26.70;95.40;;;;;;5090926;28;20208;-61
2021/08/16 11:00:40;;;;;;;5.80;3.40;;;26.60;95.60;;;;;;5091186;28;20199;-62
2021/08/16 11:03:07;;;;;;;5.25;2.92;;;26.50;94.90;;;;;;5091474;28;20204;-62
2021/08/16 11:05:35;;;;;;;6.40;2.90;;;26.30;95.10;;;;;;5090686;28;20227;-63
2021/08/16 11:08:04;;;;;;;5.85;3.03;;;26.30;95.30;;;;;;5091121;28;20211;-63
2021/08/16 11:10:39;;;;;;;7.82;3.33;;;26.40;95.30;;;;;;5091214;28;20231;-62
2021/08/16 11:13:11;;;;;;;7.35;3.25;;;26.50;95.40;;;;;;5091165;28;20239;-63
2021/08/16 11:15:39;;;;;;;6.25;2.90;;;26.50;95.50;;;;;;5091166;28;20220;-62
2021/08/16 11:18:16;;;;;;;6.78;3.33;;;26.50;95.90;;;;;;5079874;28;20201;-61
2021/08/16 11:20:44;;;;;;;6.63;2.88;;;26.50;95.40;;;;;;5091133;28;20200;-62
2021/08/16 11:23:12;;;;;;;6.50;2.85;;;26.40;95.40;;;;;;5091058;28;20375;-61
2021/08/16 11:25:50;;;;;;;5.15;3.10;;;26.20;95.30;;;;;;5090707;28;20231;-62
2021/08/16 11:28:20;;;;;;;4.30;2.70;;;26.30;95.70;;;;;;5090819;28;20204;-62
2021/08/16 11:30:48;;;;;;;5.32;2.47;;;26.30;95.50;;;;;;5090480;28;20227;-61
2021/08/16 11:33:22;;;;;;;5.13;2.70;;;26.30;95.40;;;;;;5090870;28;20658;-61
2021/08/16 11:35:49;;;;;;;5.28;2.47;;;26.60;95.70;;;;;;5091081;28;20231;-62
2021/08/16 11:38:17;;;;;;;5.03;2.83;;;26.60;94.70;;;;;;5090629;28;20318;-62
2021/08/16 11:40:44;;;;;;;6.93;2.70;;;26.60;95.20;;;;;;5090551;28;20235;-62
2021/08/16 11:43:11;;;;;;;7.68;2.70;;;26.70;95.20;;;;;;5090394;28;20315;-61
2021/08/16 11:45:38;;;;;;;3.85;2.60;;;26.50;94.70;;;;;;5090408;28;20722;-61
2021/08/16 11:48:05;;;;;;;4.30;2.42;;;26.10;95.50;;;;;;5090693;28;20208;-62
2021/08/16 11:50:32;;;;;;;5.22;2.60;;;25.90;95.90;;;;;;5090494;28;20220;-62
2021/08/16 11:52:59;;;;;;;4.05;2.72;;;25.80;96.50;;;;;;5090388;28;20204;-62
2021/08/16 11:55:30;;;;;;;9.18;3.25;;;25.70;96.20;;;;;;5090087;28;20262;-62
2021/08/16 11:57:57;;;;;;;5.18;2.75;;;25.80;96.60;;;;;;5090062;28;20607;-62
2021/08/16 12:00:26;;;;;;;5.50;2.97;;;26.10;96.20;;;;;;5090678;28;20409;-62
2021/08/16 12:02:56;;;;;;;4.60;2.80;;;26.60;95.30;;;;;;5090375;28;20204;-62
2021/08/16 12:05:23;;;;;;;4.10;2.70;;;27.10;94.40;;;;;;5090167;28;20259;-62
2021/08/16 12:07:50;;;;;;;5.13;2.83;;;27.30;93.70;;;;;;5091408;28;20208;-61
2021/08/16 12:10:18;;;;;;;5.65;2.97;;;27.20;94.40;;;;;;5094238;28;20437;-62
2021/08/16 12:12:57;;;;;;;4.47;2.80;;;27.30;94.80;;;;;;5094333;28;20239;-61
2021/08/16 12:15:24;;;;;;;6.38;2.50;;;26.90;94.50;;;;;;5094142;28;20305;-62
2021/08/16 12:17:53;;;;;;;5.70;3.10;;;26.60;94.60;;;;;;5093802;28;20215;-62
2021/08/16 12:20:20;;;;;;;5.93;2.97;;;26.40;94.80;;;;;;5094125;28;20208;-62
2021/08/16 12:22:50;;;;;;;7.15;2.60;;;26.40;94.80;;;;;;5104117;28;20203;-63
2021/08/16 12:25:17;;;;;;;5.95;2.72;;;26.60;94.20;;;;;;5116528;28;20321;-62
2021/08/16 12:27:55;;;;;;;5.35;2.97;;;26.80;93.80;;;;;;5116111;28;20203;-59
2021/08/16 12:30:22;;;;;;;6.10;2.50;;;26.90;94.10;;;;;;5115650;28;20248;-62
2021/08/16 12:32:48;;;;;;;3.90;2.47;;;27.10;94.00;;;;;;5115569;28;20207;-66
2021/08/16 12:35:16;;;;;;;4.45;3.53;;;27.20;92.80;;;;;;5114925;28;20246;-68
2021/08/16 12:37:43;;;;;;;5.57;2.88;;;27.20;92.50;;;;;;5115353;28;20206;-67
2021/08/16 12:40:12;;;;;;;5.90;2.90;;;27.40;92.20;;;;;;5115274;28;20195;-65
2021/08/16 12:42:39;;;;;;;10.60;3.05;;;27.80;92.20;;;;;;5114776;28;20698;-65
2021/08/16 12:45:13;;;;;;;5.63;2.80;;;28.00;92.10;;;;;;5114955;28;20257;-64
2021/08/16 12:47:40;;;;;;;4.47;2.92;;;27.90;91.40;;;;;;5114255;28;20207;-65